Time;durP1;ratioP1;P1;durP2;ratioP2;P2;SDS_P1;SDS_P2;PMS_P1;PMS_P2;Temp;Humidity;BMP_temperature;BMP_pressure;BME280_temperature;BME280_humidity;BME280_pressure;Samples;Min_cycle;Max_cycle;Signal;HPM_P1;HPM_P2
2022/05/20 00:01:36;;;;;;;27.70;13.98;;;;;;;11.99;77.71;100485.91;5082393;28;20480;-69
2022/05/20 00:04:01;;;;;;;27.10;14.88;;;;;;;11.95;77.92;100494.66;5085460;28;20050;-70
2022/05/20 00:06:26;;;;;;;25.75;14.85;;;;;;;11.92;77.94;100489.50;5086094;28;20028;-70
2022/05/20 00:08:53;;;;;;;28.85;13.77;;;;;;;11.83;78.15;100477.44;5086229;28;20074;-71
2022/05/20 00:11:18;;;;;;;20.48;13.07;;;;;;;11.75;78.29;100480.13;5086463;28;20394;-72
2022/05/20 00:13:45;;;;;;;23.35;13.10;;;;;;;11.73;78.27;100494.91;5086346;28;20035;-72
2022/05/20 00:16:10;;;;;;;27.05;12.65;;;;;;;11.73;78.67;100484.50;5086385;28;20008;-72
2022/05/20 00:18:36;;;;;;;21.38;12.35;;;;;;;11.81;78.32;100487.88;5086105;28;20032;-72
2022/05/20 00:21:01;;;;;;;16.33;10.02;;;;;;;11.72;78.12;100461.97;5085994;28;20425;-73
2022/05/20 00:23:26;;;;;;;21.98;9.73;;;;;;;11.73;77.92;100467.16;5085931;28;20032;-72
2022/05/20 00:25:53;;;;;;;15.80;9.05;;;;;;;11.78;77.94;100460.16;5085733;28;20031;-72
2022/05/20 00:28:27;;;;;;;13.85;9.50;;;;;;;11.80;77.57;100467.06;5085682;28;20028;-72
2022/05/20 00:31:00;;;;;;;15.23;10.00;;;;;;;11.80;77.60;100460.16;5086374;28;20024;-72
2022/05/20 00:33:27;;;;;;;17.42;9.38;;;;;;;11.83;77.56;100452.31;5086037;28;20104;-72
2022/05/20 00:35:52;;;;;;;19.45;9.57;;;;;;;11.85;77.07;100440.13;5085338;28;20257;-70
2022/05/20 00:38:18;;;;;;;19.60;9.25;;;;;;;11.74;77.02;100426.41;5085842;28;20245;-71
2022/05/20 00:40:46;;;;;;;12.27;7.80;;;;;;;11.74;76.93;100429.00;5085327;28;20053;-72
2022/05/20 00:43:24;;;;;;;11.27;7.35;;;;;;;11.73;76.74;100435.94;5085903;28;20031;-72
2022/05/20 00:45:51;;;;;;;13.85;7.40;;;;;;;11.74;76.68;100452.41;5067658;28;20025;-72
2022/05/20 00:48:17;;;;;;;13.65;7.50;;;;;;;11.75;76.60;100448.94;5085666;28;20107;-72
2022/05/20 00:50:49;;;;;;;14.27;8.45;;;;;;;11.75;76.66;100454.13;5085337;28;20052;-72
2022/05/20 00:53:18;;;;;;;11.50;8.20;;;;;;;11.77;76.49;100440.22;5085595;28;20040;-72
2022/05/20 00:55:44;;;;;;;14.05;8.23;;;;;;;11.89;76.20;100452.22;5085637;28;20020;-72
2022/05/20 00:58:15;;;;;;;18.70;8.25;;;;;;;11.89;76.10;100457.41;5085458;28;20032;-72
2022/05/20 01:00:47;;;;;;;13.97;8.57;;;;;;;11.89;76.00;100449.63;5085238;28;20021;-71
2022/05/20 01:03:14;;;;;;;;;;;;;;;11.92;75.92;100451.31;5085870;28;20021;-71
2022/05/20 01:05:47;;;;;;;15.50;9.50;;;;;;;11.90;75.56;100453.09;5084931;28;19913;-72
2022/05/20 01:08:15;;;;;;;15.18;7.55;;;;;;;11.85;75.53;100437.50;5085513;28;20032;-72
2022/05/20 01:10:40;;;;;;;13.48;7.57;;;;;;;11.85;75.54;100447.91;5085027;28;20027;-71
2022/05/20 01:13:07;;;;;;;12.05;8.73;;;;;;;11.81;75.44;100434.97;5084895;28;20020;-73
2022/05/20 01:15:32;;;;;;;15.93;8.43;;;;;;;11.87;75.54;100448.75;5066991;28;20062;-72
2022/05/20 01:17:58;;;;;;;14.18;7.95;;;;;;;11.88;75.70;100453.09;5085056;28;20333;-72
2022/05/20 01:20:30;;;;;;;16.40;8.57;;;;;;;11.91;75.64;100449.59;5067014;28;20028;-72
2022/05/20 01:23:01;;;;;;;13.50;7.45;;;;;;;11.96;75.46;100460.81;5067113;28;20026;-73
2022/05/20 01:25:29;;;;;;;15.13;7.45;;;;;;;11.99;75.29;100475.50;5084960;28;20051;-73
2022/05/20 01:27:55;;;;;;;15.88;7.65;;;;;;;11.96;75.48;100467.75;5084869;28;20039;-73
2022/05/20 01:30:23;;;;;;;15.13;7.70;;;;;;;11.95;75.28;100469.47;5084610;28;20033;-73
2022/05/20 01:32:49;;;;;;;13.02;7.78;;;;;;;11.97;75.48;100461.66;5084862;28;20086;-73
2022/05/20 01:35:21;;;;;;;12.77;8.07;;;;;;;11.97;75.56;100464.25;5084943;28;20036;-73
2022/05/20 01:37:46;;;;;;;14.07;7.88;;;;;;;11.96;75.35;100466.00;5085014;28;20021;-73
2022/05/20 01:40:12;;;;;;;11.95;7.25;;;;;;;12.00;75.64;100469.41;5084668;28;20602;-73
2022/05/20 01:42:54;;;;;;;14.45;8.38;;;;;;;12.05;75.44;100470.22;5084985;28;20021;-74
2022/05/20 01:45:28;;;;;;;;;;;;;;;12.11;75.20;100464.97;5085347;28;20069;-73
2022/05/20 01:48:33;;;;;;;13.80;7.07;;;;;;;12.05;74.84;100469.34;5084417;28;19929;-72
2022/05/20 01:51:02;;;;;;;13.20;8.57;;;;;;;12.04;75.22;100471.09;5049892;28;20443;-72
2022/05/20 01:53:40;;;;;;;15.50;7.82;;;;;;;11.99;75.35;100472.91;5084845;28;20141;-72
2022/05/20 01:56:32;;;;;;;13.25;6.32;;;;;;;11.97;75.50;100482.47;5084761;28;20080;-73
2022/05/20 01:59:14;;;;;;;10.00;7.18;;;;;;;11.92;75.54;100479.91;5075363;28;20040;-72
2022/05/20 02:01:52;;;;;;;9.05;6.15;;;;;;;11.86;75.83;100473.06;5084891;28;20039;-72
2022/05/20 02:04:23;;;;;;;9.00;6.90;;;;;;;11.89;75.94;100482.56;5084690;28;20214;-72
2022/05/20 02:06:57;;;;;;;11.05;7.70;;;;;;;11.87;76.19;100484.31;5084171;28;20500;-72
2022/05/20 02:09:33;;;;;;;12.18;7.47;;;;;;;11.90;76.02;100487.75;5084241;28;20034;-72
2022/05/20 02:11:59;;;;;;;13.98;7.70;;;;;;;11.87;76.39;100484.31;5066586;28;20288;-72
2022/05/20 02:14:35;;;;;;;11.77;6.55;;;;;;;11.84;76.24;100479.16;5084281;28;20599;-72
2022/05/20 02:17:26;;;;;;;14.60;8.20;;;;;;;11.88;76.00;100484.31;5084001;28;20070;-72
2022/05/20 02:20:13;;;;;;;12.88;6.80;;;;;;;11.84;75.93;100477.41;5084053;28;20028;-73
2022/05/20 02:22:44;;;;;;;13.55;7.47;;;;;;;11.80;76.07;100486.16;5084178;28;20086;-73
2022/05/20 02:25:15;;;;;;;13.68;8.00;;;;;;;11.76;76.31;100484.44;5083345;28;20035;-73
2022/05/20 02:27:44;;;;;;;18.67;10.23;;;;;;;11.73;76.14;100481.88;5083954;28;20539;-73
2022/05/20 02:30:16;;;;;;;13.38;7.78;;;;;;;11.73;76.43;100487.09;5065777;28;20025;-72
2022/05/20 02:32:51;;;;;;;12.93;7.53;;;;;;;11.74;76.39;100479.28;5083910;28;20167;-73
2022/05/20 02:35:17;;;;;;;10.07;7.03;;;;;;;11.78;76.19;100474.91;5083261;28;20024;-73
2022/05/20 02:37:42;;;;;;;12.35;7.38;;;;;;;11.68;76.33;100471.53;5083383;28;20420;-73
2022/05/20 02:40:12;;;;;;;15.00;6.70;;;;;;;11.69;76.37;100475.88;5064712;28;20048;-72
2022/05/20 02:42:38;;;;;;;9.77;6.85;;;;;;;11.64;76.58;100478.53;5064422;28;20048;-72
2022/05/20 02:45:04;;;;;;;14.50;7.88;;;;;;;11.65;76.39;100479.38;5082447;28;20050;-72
2022/05/20 02:47:31;;;;;;;9.95;6.80;;;;;;;11.62;76.46;100485.50;5082444;28;20016;-72
2022/05/20 02:49:57;;;;;;;9.55;6.30;;;;;;;11.59;76.69;100482.94;5082262;28;20058;-72
2022/05/20 02:52:23;;;;;;;8.82;5.70;;;;;;;11.54;76.95;100482.13;5082567;28;20032;-72
2022/05/20 02:54:48;;;;;;;12.90;7.05;;;;;;;11.43;77.14;100474.44;5082347;28;20088;-72
2022/05/20 02:57:13;;;;;;;12.32;6.78;;;;;;;11.33;77.17;100472.78;5082491;28;20024;-71
2022/05/20 03:05:06;;;;;;;10.90;5.13;;;;;;;11.16;77.67;100481.66;5082207;28;20059;-72
2022/05/20 03:07:32;;;;;;;8.60;5.35;;;;;;;11.11;77.72;100473.91;5082264;28;20528;-72
2022/05/20 03:09:57;;;;;;;9.88;5.20;;;;;;;11.05;77.91;100473.09;5082323;28;20024;-72
2022/05/20 03:12:22;;;;;;;15.60;5.32;;;;;;;11.04;78.15;100474.81;5082177;28;20039;-72
2022/05/20 03:14:48;;;;;;;10.73;5.30;;;;;;;11.06;78.05;100469.59;5082114;28;20039;-72
2022/05/20 03:17:13;;;;;;;13.45;6.60;;;;;;;11.02;78.13;100458.41;5081915;28;20106;-72
2022/05/20 03:19:39;;;;;;;10.73;5.68;;;;;;;11.06;78.23;100462.69;5082140;28;20532;-72
2022/05/20 03:22:06;;;;;;;13.70;5.93;;;;;;;11.02;78.31;100459.25;5081856;28;20025;-71
2022/05/20 03:24:32;;;;;;;8.13;5.97;;;;;;;11.06;78.74;100474.78;5063793;28;20313;-71
2022/05/20 03:26:57;;;;;;;10.73;6.70;;;;;;;11.02;78.98;100471.38;5063774;28;20292;-71
2022/05/20 03:29:23;;;;;;;12.85;6.25;;;;;;;11.01;79.16;100469.63;5081866;28;20032;-71
2022/05/20 03:31:49;;;;;;;11.00;6.35;;;;;;;11.11;79.46;100468.69;5081769;28;20036;-71
2022/05/20 03:34:17;;;;;;;12.25;6.47;;;;;;;11.20;80.01;100474.69;5081828;28;20021;-71
2022/05/20 03:36:45;;;;;;;10.73;6.45;;;;;;;11.39;80.52;100473.59;5080994;28;20024;-71
2022/05/20 03:39:13;;;;;;;10.98;5.88;;;;;;;11.52;80.44;100474.34;5024602;28;1103121;-71
2022/05/20 03:41:40;;;;;;;14.93;6.47;;;;;;;11.68;79.90;100468.94;5082560;28;20055;-72
2022/05/20 03:44:07;;;;;;;17.55;6.35;;;;;;;11.83;79.81;100467.91;5082734;28;20104;-71
2022/05/20 03:46:32;;;;;;;12.80;6.95;;;;;;;11.99;79.03;100475.50;5082773;28;20025;-71
2022/05/20 03:48:59;;;;;;;12.43;6.07;;;;;;;12.05;78.86;100478.03;5082524;28;20028;-71
2022/05/20 03:51:24;;;;;;;9.52;6.22;;;;;;;12.01;78.79;100477.19;5082212;28;20025;-71
2022/05/20 03:53:50;;;;;;;19.00;6.93;;;;;;;12.01;78.55;100465.94;5064520;28;20016;-71
2022/05/20 03:56:15;;;;;;;11.50;6.55;;;;;;;12.09;78.46;100474.53;5064471;28;20473;-72
2022/05/20 03:58:40;;;;;;;14.77;6.57;;;;;;;12.05;78.46;100462.41;5064164;28;20017;-71
2022/05/20 04:03:53;;;;;;;12.43;6.13;;;;;;;12.20;78.40;100465.72;5082296;28;20036;-71
2022/05/20 04:06:19;;;;;;;11.82;5.43;;;;;;;12.26;78.32;100468.22;5081957;28;20025;-71
2022/05/20 04:08:44;;;;;;;13.00;5.65;;;;;;;12.29;78.18;100464.72;5082267;28;20103;-71
2022/05/20 04:11:11;;;;;;;10.80;5.75;;;;;;;12.28;78.19;100453.47;5082168;28;20024;-71
2022/05/20 04:13:40;;;;;;;8.38;4.78;;;;;;;12.37;78.04;100462.84;5082277;28;20047;-72
2022/05/20 04:16:07;;;;;;;10.88;5.25;;;;;;;12.38;77.94;100462.84;5064067;28;20020;-71
2022/05/20 04:18:32;;;;;;;11.02;5.35;;;;;;;12.45;77.99;100454.94;5082379;28;20032;-73
2022/05/20 04:20:58;;;;;;;11.80;4.88;;;;;;;12.50;77.83;100468.75;5064098;28;20020;-72
2022/05/20 04:23:23;;;;;;;11.10;4.50;;;;;;;12.49;77.76;100464.44;5082278;28;20025;-70
2022/05/20 04:25:49;;;;;;;7.43;4.80;;;;;;;12.55;77.62;100472.16;5082045;28;20436;-69
2022/05/20 04:28:15;;;;;;;10.68;5.22;;;;;;;12.51;77.18;100453.09;5082019;28;20047;-69
2022/05/20 04:30:41;;;;;;;10.48;4.65;;;;;;;12.57;77.15;100454.72;5082062;28;20082;-69
2022/05/20 04:33:07;;;;;;;9.32;4.03;;;;;;;12.59;77.05;100457.31;5082339;28;20032;-69
2022/05/20 04:35:32;;;;;;;7.03;4.32;;;;;;;12.60;76.85;100469.47;5082492;28;20253;-69
2022/05/20 04:37:58;;;;;;;8.75;4.30;;;;;;;12.56;77.08;100462.56;5082379;28;20040;-69
2022/05/20 04:40:23;;;;;;;8.38;4.45;;;;;;;12.49;77.04;100456.63;5082236;28;20052;-72
2022/05/20 04:48:17;;;;;;;7.88;4.10;;;;;;;12.56;77.27;100463.44;5082486;28;20058;-72
2022/05/20 04:50:42;;;;;;;8.15;3.90;;;;;;;12.55;76.98;100460.88;5085916;28;20072;-72
2022/05/20 04:53:07;;;;;;;5.57;3.60;;;;;;;12.56;76.89;100467.78;5085899;28;20488;-73
2022/05/20 04:55:33;;;;;;;8.18;3.85;;;;;;;12.52;77.38;100467.00;5085878;28;20021;-72
2022/05/20 04:57:59;;;;;;;6.45;3.70;;;;;;;12.49;77.27;100460.06;5085564;28;20024;-74
2022/05/20 05:00:29;;;;;;;10.50;3.90;;;;;;;12.59;77.54;100475.53;5085915;28;20052;-74
2022/05/20 05:02:55;;;;;;;5.82;3.85;;;;;;;12.60;77.39;100475.50;5085905;28;20028;-72
2022/05/20 05:05:23;;;;;;;6.55;3.58;;;;;;;12.61;77.45;100471.19;5085455;28;20024;-72
2022/05/20 05:07:52;;;;;;;12.00;3.80;;;;;;;12.61;77.63;100469.44;5086034;28;20088;-75
2022/05/20 05:10:23;;;;;;;5.35;3.33;;;;;;;12.59;77.95;100473.81;5085737;28;20034;-74
2022/05/20 05:12:49;;;;;;;5.18;3.08;;;;;;;12.55;78.14;100477.34;5085469;28;20068;-73
2022/05/20 05:15:15;;;;;;;7.20;3.00;;;;;;;12.62;78.35;100489.38;5085577;28;20028;-73
2022/05/20 05:20:27;;;;;;;7.95;3.35;;;;;;;12.66;77.37;100482.38;5085365;28;20085;-74
2022/05/20 05:22:55;;;;;;;9.90;3.28;;;;;;;12.56;77.56;100488.59;5085506;28;20067;-72
2022/05/20 05:25:24;;;;;;;7.03;3.58;;;;;;;12.54;77.49;100491.25;5085376;28;20050;-73
2022/05/20 05:27:50;;;;;;;8.93;3.60;;;;;;;12.44;77.34;100492.28;5084885;28;20016;-74
2022/05/20 05:30:17;;;;;;;10.05;3.22;;;;;;;12.25;77.30;100469.13;5085176;28;20020;-78
2022/05/20 05:32:43;;;;;;;8.07;3.38;;;;;;;12.36;77.86;100488.03;5067096;28;20025;-77
2022/05/20 05:35:13;;;;;;;5.47;3.50;;;;;;;12.46;77.60;100493.13;5084648;28;20020;-76
2022/05/20 05:37:41;;;;;;;12.57;3.60;;;;;;;12.48;77.61;100507.81;5067053;28;20356;-77
2022/05/20 05:40:10;;;;;;;10.68;3.83;;;;;;;12.54;77.39;100503.41;5084898;28;20454;-72
2022/05/20 05:42:35;;;;;;;9.43;3.17;;;;;;;12.49;77.28;100493.06;5084959;28;20031;-71
2022/05/20 05:45:03;;;;;;;9.05;3.67;;;;;;;12.46;77.13;100498.34;5084665;28;20028;-74
2022/05/20 05:47:28;;;;;;;7.50;3.55;;;;;;;12.40;77.60;100491.44;5084203;28;20084;-74
2022/05/20 05:49:54;;;;;;;9.90;4.75;;;;;;;12.36;77.86;100502.81;5084597;28;20052;-74
2022/05/20 05:52:19;;;;;;;12.30;4.88;;;;;;;12.29;78.21;100498.56;5083768;28;20025;-73
2022/05/20 05:54:44;;;;;;;11.75;4.80;;;;;;;12.26;78.42;100489.06;5083869;28;20027;-73
2022/05/20 05:57:10;;;;;;;14.10;5.18;;;;;;;12.19;78.64;100479.63;5083934;28;20036;-73
2022/05/20 05:59:37;;;;;;;14.07;5.15;;;;;;;12.29;78.97;100490.75;5083608;28;20074;-73
2022/05/20 06:02:04;;;;;;;15.23;6.22;;;;;;;12.35;78.82;100490.66;5083197;28;20035;-73
2022/05/20 06:04:29;;;;;;;12.55;5.15;;;;;;;12.36;78.49;100472.41;5083568;28;20023;-73
2022/05/20 06:06:55;;;;;;;10.18;5.28;;;;;;;12.44;78.52;100484.47;5065209;28;20020;-73
2022/05/20 06:09:22;;;;;;;10.90;4.95;;;;;;;12.58;78.42;100492.94;5083475;28;20024;-71
2022/05/20 06:11:49;;;;;;;12.15;5.28;;;;;;;12.72;78.07;100486.63;5083625;28;20024;-68
2022/05/20 06:14:14;;;;;;;9.88;4.97;;;;;;;12.77;77.76;100483.09;5083669;28;20025;-69
2022/05/20 06:16:40;;;;;;;10.52;5.25;;;;;;;12.84;77.41;100481.22;5083421;28;20084;-68
2022/05/20 06:19:05;;;;;;;13.77;4.85;;;;;;;12.91;77.31;100483.75;5083142;28;20062;-69
2022/05/20 06:21:31;;;;;;;9.30;4.53;;;;;;;12.98;77.09;100485.34;5083165;28;20013;-69
2022/05/20 06:23:57;;;;;;;8.40;4.88;;;;;;;13.14;76.92;100478.13;5083309;28;20021;-69
2022/05/20 06:26:22;;;;;;;13.43;5.22;;;;;;;13.17;76.34;100478.06;5082669;28;20021;-68
2022/05/20 06:28:48;;;;;;;17.65;5.03;;;;;;;13.21;75.83;100484.09;5082778;28;20025;-68
2022/05/20 06:31:13;;;;;;;11.90;5.35;;;;;;;13.27;76.06;100486.59;5082877;28;20099;-68
2022/05/20 06:33:39;;;;;;;15.23;5.13;;;;;;;13.43;75.59;100496.72;5082554;28;20039;-68
2022/05/20 06:41:33;;;;;;;15.20;5.90;;;;;;;13.75;74.42;100498.72;5082861;28;20057;-68
2022/05/20 06:43:58;;;;;;;11.07;4.80;;;;;;;13.87;74.27;100502.84;5064683;28;20103;-69
2022/05/20 06:46:24;;;;;;;10.40;4.85;;;;;;;13.92;74.04;100501.88;5082461;28;20724;-69
2022/05/20 06:48:51;;;;;;;11.68;4.88;;;;;;;13.93;73.09;100503.59;5082696;28;20024;-68
2022/05/20 06:51:21;;;;;;;8.93;4.13;;;;;;;13.90;72.97;100501.06;5082614;28;20055;-69
2022/05/20 06:53:47;;;;;;;8.23;4.57;;;;;;;13.87;72.39;100518.50;5064844;28;20040;-68
2022/05/20 06:56:14;;;;;;;13.00;4.50;;;;;;;13.78;72.47;100517.81;5083040;28;20103;-69
2022/05/20 06:58:40;;;;;;;13.38;4.93;;;;;;;13.67;72.28;100515.44;5082863;28;20361;-69
2022/05/20 07:01:05;;;;;;;9.90;4.50;;;;;;;13.61;72.59;100506.81;5082782;28;20023;-68
2022/05/20 07:03:32;;;;;;;14.77;5.15;;;;;;;13.63;72.98;100510.28;5082658;28;20474;-69
2022/05/20 07:05:57;;;;;;;12.85;5.32;;;;;;;13.68;73.02;100507.56;5082227;28;20032;-69
2022/05/20 07:08:24;;;;;;;17.95;5.45;;;;;;;13.73;72.89;100510.09;5082492;28;20201;-69
2022/05/20 07:10:49;;;;;;;11.68;5.07;;;;;;;13.77;73.00;100508.28;5082383;28;20029;-69
2022/05/20 07:13:15;;;;;;;15.27;4.93;;;;;;;13.83;72.83;100510.75;5082341;28;20022;-69
2022/05/20 07:15:40;;;;;;;17.65;5.72;;;;;;;13.85;72.65;100515.06;5082469;28;20020;-69
2022/05/20 07:18:06;;;;;;;12.43;4.82;;;;;;;13.87;72.56;100520.22;5082169;28;20048;-69
2022/05/20 07:20:31;;;;;;;9.02;4.90;;;;;;;13.92;72.66;100520.13;5082139;28;20119;-69
2022/05/20 07:22:56;;;;;;;14.82;5.03;;;;;;;13.95;72.62;100525.28;5082343;28;20056;-68
2022/05/20 07:25:22;;;;;;;13.07;4.85;;;;;;;14.00;72.57;100528.69;5082298;28;20016;-68
2022/05/20 07:27:47;;;;;;;19.55;6.32;;;;;;;14.07;72.36;100530.28;5082270;28;20024;-69
2022/05/20 07:30:14;;;;;;;12.77;5.10;;;;;;;13.97;72.42;100532.22;5082239;28;20024;-69
2022/05/20 07:32:39;;;;;;;12.93;5.05;;;;;;;14.05;72.23;100534.66;5082474;28;20344;-68
2022/05/20 07:35:05;;;;;;;13.63;5.53;;;;;;;14.10;72.36;100543.28;5082168;28;20468;-69
2022/05/20 07:37:30;;;;;;;15.32;5.45;;;;;;;14.19;72.09;100543.94;5081649;28;20047;-69
2022/05/20 07:39:56;;;;;;;17.70;5.10;;;;;;;14.18;71.59;100543.09;5082208;28;20056;-68
2022/05/20 07:42:22;;;;;;;17.85;5.45;;;;;;;14.15;71.44;100543.16;5082240;28;20099;-69
2022/05/20 07:44:48;;;;;;;15.25;5.72;;;;;;;14.12;71.57;100538.84;5081992;28;20514;-69
2022/05/20 07:47:14;;;;;;;12.52;5.88;;;;;;;14.19;71.57;100543.94;5081927;28;20056;-68
2022/05/20 07:49:39;;;;;;;17.08;5.32;;;;;;;14.11;70.75;100546.72;5081874;28;20025;-68
2022/05/20 07:52:07;;;;;;;16.60;5.85;;;;;;;14.02;71.41;100542.56;5081876;28;20257;-69
2022/05/20 07:54:41;;;;;;;10.23;5.18;;;;;;;14.14;71.55;100551.88;5081936;28;20028;-68
2022/05/20 07:57:12;;;;;;;18.40;6.35;;;;;;;14.22;71.18;100551.72;5082013;28;20078;-69
2022/05/20 07:59:47;;;;;;;14.13;5.90;;;;;;;14.30;71.19;100549.81;5081857;28;20092;-69
2022/05/20 08:02:15;;;;;;;15.43;5.85;;;;;;;14.38;70.99;100550.50;5081980;28;20253;-69
2022/05/20 08:04:56;;;;;;;11.38;5.85;;;;;;;14.44;70.19;100549.50;5081902;28;20023;-69
2022/05/20 08:07:29;;;;;;;14.50;6.05;;;;;;;14.54;70.65;100551.88;5081631;28;20035;-69
2022/05/20 08:09:55;;;;;;;17.70;5.50;;;;;;;14.75;70.09;100559.25;5082372;28;20344;-69
2022/05/20 08:12:21;;;;;;;19.42;5.75;;;;;;;14.90;69.03;100556.34;5081740;28;20398;-70
2022/05/20 08:14:48;;;;;;;11.32;5.18;;;;;;;14.91;68.67;100564.13;5082008;28;20020;-70
2022/05/20 08:17:13;;;;;;;13.27;5.43;;;;;;;14.94;68.88;100571.03;5081906;28;20044;-68
2022/05/20 08:19:39;;;;;;;15.45;5.88;;;;;;;14.85;68.19;100562.56;5081620;28;20016;-69
2022/05/20 08:22:04;;;;;;;10.52;4.93;;;;;;;14.89;68.53;100570.31;5081608;28;20024;-69
2022/05/20 08:24:30;;;;;;;13.80;5.30;;;;;;;14.91;68.02;100571.13;5083792;28;20237;-68
2022/05/20 08:26:56;;;;;;;13.18;5.15;;;;;;;15.01;68.25;100564.78;5085361;28;20027;-68
2022/05/20 08:29:22;;;;;;;12.63;5.07;;;;;;;15.33;68.20;100557.88;5085485;28;20080;-68
2022/05/20 08:31:48;;;;;;;10.75;4.63;;;;;;;16.35;66.36;100550.72;5085551;28;20072;-70
2022/05/20 08:34:13;;;;;;;9.60;4.57;;;;;;;17.27;64.31;100552.22;5085182;28;20025;-68
2022/05/20 08:36:40;;;;;;;13.30;4.95;;;;;;;17.80;61.19;100532.00;5084979;28;20028;-68
2022/05/20 08:39:06;;;;;;;9.68;4.47;;;;;;;18.27;60.40;100546.06;5066941;28;20048;-68
2022/05/20 08:41:40;;;;;;;8.93;4.68;;;;;;;19.02;59.63;100543.09;5085243;28;20024;-69
2022/05/20 08:44:08;;;;;;;13.73;4.25;;;;;;;19.98;58.04;100539.00;5085258;28;20025;-68
2022/05/20 08:46:34;;;;;;;14.48;4.60;;;;;;;21.09;54.13;100542.56;5085119;28;20017;-70
2022/05/20 08:48:59;;;;;;;8.40;3.78;;;;;;;21.95;52.42;100535.50;5085036;28;20020;-70
2022/05/20 08:51:29;;;;;;;8.30;3.70;;;;;;;22.58;48.86;100546.16;5085050;28;20071;-70
2022/05/20 08:53:54;;;;;;;11.40;3.88;;;;;;;23.03;46.57;100543.59;5084892;28;20331;-70
2022/05/20 08:56:22;;;;;;;8.50;3.60;;;;;;;23.34;44.76;100548.03;5084979;28;20020;-70
2022/05/20 08:58:53;;;;;;;10.02;4.30;;;;;;;23.69;44.09;100547.66;5084719;28;20411;-70
2022/05/20 09:01:27;;;;;;;6.97;4.13;;;;;;;23.93;42.04;100543.59;5084571;28;20079;-70
2022/05/20 09:03:52;;;;;;;9.43;3.50;;;;;;;24.12;41.33;100551.25;5085069;28;20079;-70
2022/05/20 09:06:18;;;;;;;8.25;3.10;;;;;;;24.33;40.46;100557.00;5084528;28;20024;-69
2022/05/20 09:08:45;;;;;;;5.57;3.20;;;;;;;24.71;40.69;100547.47;5084646;28;20361;-68
2022/05/20 09:11:15;;;;;;;5.90;3.50;;;;;;;24.73;39.60;100556.19;5084777;28;20043;-69
2022/05/20 09:16:30;;;;;;;8.73;3.38;;;;;;;24.72;38.93;100561.59;5084498;28;20086;-69
2022/05/20 09:19:08;;;;;;;6.65;3.25;;;;;;;24.67;38.26;100561.03;5084594;28;20020;-68
2022/05/20 09:21:42;;;;;;;10.88;4.18;;;;;;;25.05;38.46;100565.63;5084517;28;20036;-70
2022/05/20 09:24:16;;;;;;;10.48;3.70;;;;;;;25.16;37.33;100567.56;5084408;28;20095;-69
2022/05/20 09:26:59;;;;;;;7.47;3.35;;;;;;;25.10;36.89;100578.59;5084406;28;20024;-69
2022/05/20 09:29:29;;;;;;;8.35;3.28;;;;;;;25.34;36.67;100572.56;5084151;28;20021;-69
2022/05/20 09:32:00;;;;;;;7.13;3.20;;;;;;;25.73;35.80;100573.47;5084191;28;20031;-69
2022/05/20 09:34:26;;;;;;;8.40;3.72;;;;;;;25.78;35.05;100577.59;5084246;28;20054;-69
2022/05/20 09:37:00;;;;;;;13.07;4.03;;;;;;;25.55;35.93;100580.03;5084038;28;20021;-68
2022/05/20 09:39:28;;;;;;;5.72;2.90;;;;;;;25.74;35.31;100577.81;5083846;28;20288;-69
2022/05/20 09:41:56;;;;;;;9.45;3.25;;;;;;;25.60;35.31;100584.06;5084456;28;20088;-69
2022/05/20 09:44:24;;;;;;;9.57;3.53;;;;;;;25.17;35.56;100582.56;5084226;28;20097;-68
2022/05/20 09:46:54;;;;;;;11.65;4.57;;;;;;;24.88;36.77;100575.56;5084058;28;20387;-69
2022/05/20 09:49:30;;;;;;;9.02;3.72;;;;;;;24.89;37.10;100571.13;5084011;28;20031;-69
2022/05/20 09:51:59;;;;;;;7.95;3.28;;;;;;;25.20;36.77;100576.19;5083944;28;20124;-69
2022/05/20 09:54:35;;;;;;;10.07;3.70;;;;;;;25.66;36.90;100582.81;5084054;28;20027;-69
2022/05/20 09:57:12;;;;;;;11.10;3.83;;;;;;;26.15;35.79;100582.94;5084071;28;20025;-69
2022/05/20 10:00:00;;;;;;;6.85;3.65;;;;;;;26.05;35.08;100587.25;5083861;28;20042;-69
2022/05/20 10:02:30;;;;;;;9.10;2.92;;;;;;;26.13;35.45;100584.88;5083781;28;20117;-69
2022/05/20 10:05:18;;;;;;;8.32;3.13;;;;;;;26.16;34.56;100581.13;5083664;28;20050;-69
2022/05/20 10:08:04;;;;;;;10.07;3.88;;;;;;;25.94;35.23;100586.19;5065101;28;20334;-69
2022/05/20 10:10:56;;;;;;;6.40;3.33;;;;;;;25.89;35.08;100569.72;5082729;28;20037;-68
2022/05/20 10:14:00;;;;;;;8.43;3.42;;;;;;;26.05;35.47;100585.44;5083163;28;20045;-69
2022/05/20 10:16:30;;;;;;;5.38;2.80;;;;;;;26.36;35.10;100572.59;5001344;28;20034;-70
2022/05/20 10:19:32;;;;;;;6.97;3.42;;;;;;;26.69;34.78;100575.56;5001746;28;20057;-71
2022/05/20 10:22:22;;;;;;;9.68;3.90;;;;;;;26.84;33.67;100578.88;5001681;28;20030;-68
2022/05/20 10:25:12;;;;;;;5.68;2.85;;;;;;;26.16;33.50;100584.66;5001717;28;20080;-72
2022/05/20 10:27:57;;;;;;;9.20;3.30;;;;;;;25.61;34.55;100585.81;5000394;28;20042;-69
2022/05/20 10:33:22;;;;;;;9.55;3.10;;;;;;;24.79;35.49;100572.66;5001568;28;20142;-70
2022/05/20 10:36:09;;;;;;;7.93;3.05;;;;;;;24.44;36.03;100580.16;5001970;28;20042;-68
2022/05/20 10:39:08;;;;;;;7.35;2.67;;;;;;;24.19;36.41;100579.09;5001344;28;20034;-73
2022/05/20 10:42:15;;;;;;;8.15;3.25;;;;;;;24.02;37.04;100581.00;5001443;28;20062;-71
2022/05/20 10:48:34;;;;;;;7.18;3.15;;;;;;;25.10;35.34;100581.25;4941539;29;20078;-71
2022/05/20 10:51:21;;;;;;;11.27;3.30;;;;;;;24.82;35.58;100573.31;4942237;29;20033;-71
2022/05/20 10:53:55;;;;;;;8.30;2.78;;;;;;;24.69;35.97;100578.59;4959947;29;20050;-71
2022/05/20 10:56:41;;;;;;;10.32;2.80;;;;;;;24.21;36.93;100585.16;4961756;29;20038;-71
2022/05/20 10:59:17;;;;;;;10.82;3.22;;;;;;;23.61;37.57;100576.47;4961865;29;20074;-71
2022/05/20 11:02:05;;;;;;;9.20;3.05;;;;;;;22.74;38.77;100587.66;4961911;29;20039;-70
2022/05/20 11:04:58;;;;;;;6.85;2.63;;;;;;;22.26;40.07;100594.63;4961939;29;20027;-70
2022/05/20 11:07:51;;;;;;;13.27;2.88;;;;;;;21.55;40.80;100593.94;4960000;29;20031;-70
2022/05/20 11:10:29;;;;;;;5.90;3.00;;;;;;;21.13;42.09;100601.34;4961821;29;20030;-71
2022/05/20 11:13:12;;;;;;;9.50;2.58;;;;;;;20.73;42.35;100596.19;4961781;29;20099;-70
2022/05/20 11:16:00;;;;;;;9.02;2.60;;;;;;;20.21;43.11;100595.94;4961511;29;20039;-70
2022/05/20 11:18:48;;;;;;;8.38;2.38;;;;;;;19.68;43.45;100596.47;4961465;29;20042;-70
2022/05/20 11:21:13;;;;;;;8.55;2.30;;;;;;;19.31;44.58;100596.28;4996695;28;20093;-70
2022/05/20 11:23:48;;;;;;;6.75;2.50;;;;;;;19.04;44.11;100599.13;5082280;28;20082;-70
2022/05/20 11:26:22;;;;;;;8.00;2.42;;;;;;;18.70;44.87;100593.47;5082178;28;20021;-70
2022/05/20 11:29:07;;;;;;;10.25;3.05;;;;;;;18.45;45.92;100585.69;5082307;28;20040;-70
2022/05/20 11:31:51;;;;;;;13.55;3.00;;;;;;;18.17;46.90;100586.72;5082478;28;20040;-71
2022/05/20 11:34:38;;;;;;;9.90;2.70;;;;;;;17.76;47.45;100601.28;5082208;28;20025;-69
2022/05/20 11:37:09;;;;;;;8.15;2.40;;;;;;;17.48;48.69;100594.38;5048377;28;20523;-70
2022/05/20 11:39:53;;;;;;;11.35;2.33;;;;;;;17.26;49.00;100592.47;5081953;28;20062;-71
2022/05/20 11:42:35;;;;;;;6.57;2.38;;;;;;;17.06;49.48;100583.47;5082090;28;20024;-70
2022/05/20 11:45:16;;;;;;;12.50;3.20;;;;;;;16.92;50.27;100598.78;5082090;28;20020;-70
2022/05/20 11:48:12;;;;;;;8.20;2.88;;;;;;;16.79;50.70;100585.25;5081829;28;20043;-69
2022/05/20 11:50:56;;;;;;;13.55;3.55;;;;;;;16.75;51.62;100589.72;5081690;28;20028;-69
2022/05/20 11:53:28;;;;;;;8.00;2.45;;;;;;;16.71;51.49;100593.31;5081685;28;20029;-70
2022/05/20 11:56:23;;;;;;;11.60;2.70;;;;;;;16.62;50.96;100588.38;5081830;28;20077;-69
2022/05/20 11:59:20;;;;;;;12.85;3.03;;;;;;;16.51;51.01;100581.69;5075014;28;20028;-69
2022/05/20 12:01:48;;;;;;;14.75;3.28;;;;;;;16.46;51.62;100579.22;5069611;28;20037;-70
2022/05/20 12:04:16;;;;;;;9.15;2.13;;;;;;;16.39;51.86;100587.31;5086081;28;20047;-71
2022/05/20 12:06:46;;;;;;;8.68;2.67;;;;;;;16.31;51.70;100583.16;5085636;28;20492;-71